GB-0295 weather

Ranston Airstrip
England, United Kingdom

Public forecast

Using degrees Celsius for public forecast. Weather courtesy of forecast.io.

METAR (pilot weather report)

Closest report is Bournemouth Airport, 15.3 nm (28.4 km) ESE. Retrieved 2019/07/20 19:20 UTC (15 minutes ago):

EGHH 201920Z 30007KT 9999 FEW049 20/12 Q1014

TAF (pilot weather forecast)

Forecast is more than 12 hours old.

Closest forecast is Bournemouth Airport, 15.3 nm (28.4 km) ESE. Retrieved 2013/12/01 21:21 UTC (6 years ago):

TAF TAF EGHH 010016Z 3021/0106 CNL